Time;durP1;ratioP1;P1;durP2;ratioP2;P2;SDS_P1;SDS_P2;PMS_P1;PMS_P2;Temp;Humidity;BMP_temperature;BMP_pressure;BME280_temperature;BME280_humidity;BME280_pressure;Samples;Min_cycle;Max_cycle;Signal;HPM_P1;HPM_P2
2021/03/02 00:01:14;;;;;;;0.93;0.50;;;18.10;63.70;;;;;;5062072;28;20057;-35
2021/03/02 00:03:40;;;;;;;0.40;0.40;;;18.10;63.60;;;;;;5062886;28;20092;-35
2021/03/02 00:06:07;;;;;;;0.68;0.50;;;18.10;63.50;;;;;;5062626;28;20075;-36
2021/03/02 00:08:35;;;;;;;1.30;0.85;;;18.10;63.70;;;;;;5062485;28;20477;-35
2021/03/02 00:11:02;;;;;;;0.88;0.60;;;18.10;63.70;;;;;;5062695;28;20041;-35
2021/03/02 00:13:28;;;;;;;0.50;0.40;;;18.10;63.60;;;;;;5062604;28;20021;-35
2021/03/02 00:16:03;;;;;;;1.00;0.60;;;18.10;63.60;;;;;;5062524;28;20040;-35
2021/03/02 00:18:36;;;;;;;0.90;0.68;;;18.10;63.50;;;;;;5045872;28;20027;-35
2021/03/02 00:21:08;;;;;;;0.77;0.77;;;18.10;63.60;;;;;;5045993;28;20033;-35
2021/03/02 00:23:44;;;;;;;0.82;0.70;;;18.10;63.50;;;;;;5044865;28;20013;-35
2021/03/02 00:26:13;;;;;;;0.60;0.60;;;18.00;63.50;;;;;;5044358;28;20055;-35
2021/03/02 00:28:39;;;;;;;0.73;0.60;;;18.00;63.50;;;;;;5044578;28;20045;-35
2021/03/02 00:31:06;;;;;;;0.68;0.60;;;18.00;63.50;;;;;;5069814;28;20036;-35
2021/03/02 00:33:33;;;;;;;0.70;0.60;;;18.00;63.40;;;;;;5045983;28;20033;-35
2021/03/02 00:35:59;;;;;;;0.80;0.63;;;18.00;63.50;;;;;;5054640;28;20028;-35
2021/03/02 00:38:25;;;;;;;0.98;0.80;;;18.00;63.50;;;;;;5082528;28;20024;-35
2021/03/02 00:40:51;;;;;;;1.00;0.63;;;18.00;63.50;;;;;;5083045;28;20028;-35
2021/03/02 00:43:18;;;;;;;0.82;0.60;;;18.00;63.50;;;;;;5083449;28;20110;-34
2021/03/02 00:45:44;;;;;;;0.70;0.60;;;18.00;63.50;;;;;;5082542;28;20143;-35
2021/03/02 00:48:11;;;;;;;0.98;0.77;;;18.00;63.50;;;;;;5082627;28;20021;-35
2021/03/02 00:50:37;;;;;;;1.50;0.60;;;17.90;63.40;;;;;;5082977;28;20028;-35
2021/03/02 00:53:04;;;;;;;2.13;0.70;;;17.90;63.30;;;;;;5084199;28;20044;-35
2021/03/02 00:55:30;;;;;;;0.80;0.60;;;17.90;63.40;;;;;;5082203;28;20032;-35
2021/03/02 00:57:56;;;;;;;1.15;0.57;;;17.90;63.30;;;;;;5082414;28;20044;-35
2021/03/02 01:00:23;;;;;;;0.88;0.60;;;17.90;63.40;;;;;;5082277;28;20063;-35
2021/03/02 01:02:49;;;;;;;0.73;0.68;;;17.80;63.30;;;;;;5095789;28;20024;-34
2021/03/02 01:05:16;;;;;;;0.80;0.60;;;17.80;63.30;;;;;;5082467;28;20095;-35
2021/03/02 01:07:42;;;;;;;1.40;0.60;;;17.90;63.40;;;;;;5081952;28;20044;-34
2021/03/02 01:10:09;;;;;;;0.82;0.73;;;17.80;63.20;;;;;;5081937;28;20029;-35
2021/03/02 01:12:35;;;;;;;0.85;0.65;;;17.80;63.20;;;;;;5082354;28;20039;-34
2021/03/02 01:15:01;;;;;;;0.75;0.60;;;17.80;63.20;;;;;;5084694;28;20027;-35
2021/03/02 01:17:27;;;;;;;1.08;0.88;;;17.80;63.00;;;;;;5082049;28;20024;-34
2021/03/02 01:19:54;;;;;;;0.80;0.75;;;17.80;63.00;;;;;;5082259;28;20100;-35
2021/03/02 01:22:20;;;;;;;0.57;0.57;;;17.80;62.80;;;;;;5067333;28;20024;-35
2021/03/02 01:24:46;;;;;;;0.90;0.80;;;17.80;62.80;;;;;;5085969;28;20389;-35
2021/03/02 01:27:13;;;;;;;1.00;0.80;;;17.80;62.80;;;;;;5085568;28;20091;-34
2021/03/02 01:29:39;;;;;;;0.88;0.88;;;17.80;62.80;;;;;;5087006;28;20032;-35
2021/03/02 01:32:05;;;;;;;3.53;0.60;;;17.80;62.80;;;;;;5095489;28;20033;-35
2021/03/02 01:34:32;;;;;;;1.77;0.80;;;17.80;62.70;;;;;;5074481;28;20070;-35
2021/03/02 01:36:59;;;;;;;1.13;0.70;;;17.80;62.90;;;;;;5071520;28;20071;-34
2021/03/02 01:39:25;;;;;;;0.70;0.70;;;17.80;63.00;;;;;;5065436;28;20089;-35
2021/03/02 01:41:55;;;;;;;0.80;0.70;;;17.70;62.80;;;;;;5065381;28;20036;-34
2021/03/02 01:44:22;;;;;;;1.33;0.73;;;17.70;62.90;;;;;;5065173;28;20075;-35
2021/03/02 01:46:49;;;;;;;0.73;0.73;;;17.70;62.80;;;;;;5065089;28;20092;-34
2021/03/02 01:49:16;;;;;;;1.00;0.80;;;17.70;62.90;;;;;;5065200;28;20056;-34
2021/03/02 01:51:43;;;;;;;0.65;0.60;;;17.70;62.90;;;;;;5065197;28;20139;-34
2021/03/02 01:54:12;;;;;;;0.70;0.70;;;17.60;62.80;;;;;;5065175;28;20060;-35
2021/03/02 01:56:38;;;;;;;1.00;0.75;;;17.60;62.80;;;;;;5047410;28;20092;-35
2021/03/02 01:59:05;;;;;;;0.98;0.70;;;17.60;62.90;;;;;;5064956;28;20017;-34
2021/03/02 02:01:31;;;;;;;0.95;0.70;;;17.60;62.90;;;;;;5064903;28;20036;-35
2021/03/02 02:04:12;;;;;;;1.52;1.00;;;17.60;62.80;;;;;;5047364;28;20036;-34
2021/03/02 02:06:47;;;;;;;1.00;0.85;;;17.60;62.60;;;;;;5064448;28;20070;-35
2021/03/02 02:09:18;;;;;;;1.00;0.80;;;17.60;62.60;;;;;;5064681;28;20045;-34
2021/03/02 02:12:28;;;;;;;0.80;0.80;;;17.60;62.50;;;;;;5046603;28;20040;-34
2021/03/02 02:14:56;;;;;;;0.70;0.70;;;17.60;62.40;;;;;;4971893;28;20037;-35
2021/03/02 02:17:25;;;;;;;1.30;0.90;;;17.60;62.40;;;;;;4983028;28;20505;-35
2021/03/02 02:20:00;;;;;;;1.27;1.00;;;17.60;62.30;;;;;;4983053;28;20035;-35
2021/03/02 02:23:03;;;;;;;0.80;0.77;;;17.50;62.40;;;;;;4983191;28;20034;-35
2021/03/02 02:25:53;;;;;;;1.40;0.90;;;17.60;62.60;;;;;;4982954;28;20047;-35
2021/03/02 02:28:19;;;;;;;1.92;0.55;;;17.50;62.60;;;;;;4982571;28;20730;-34
2021/03/02 02:30:52;;;;;;;1.80;0.82;;;17.50;62.60;;;;;;4993112;28;20042;-34
2021/03/02 02:33:19;;;;;;;0.98;0.80;;;17.50;62.60;;;;;;4973652;28;20043;-34
2021/03/02 02:35:46;;;;;;;1.17;0.80;;;17.50;62.70;;;;;;4986029;28;20027;-34
2021/03/02 02:38:14;;;;;;;0.70;0.70;;;17.50;63.20;;;;;;4961144;28;20046;-35
2021/03/02 02:40:40;;;;;;;1.35;0.80;;;17.50;62.70;;;;;;4986045;28;20034;-35
2021/03/02 02:43:06;;;;;;;1.40;0.77;;;17.40;62.70;;;;;;4985884;28;20113;-34
2021/03/02 02:45:32;;;;;;;0.63;0.60;;;17.40;62.60;;;;;;4996072;28;20029;-34
2021/03/02 02:47:58;;;;;;;0.98;0.85;;;17.40;62.40;;;;;;5055180;28;20039;-35
2021/03/02 02:50:24;;;;;;;1.10;0.80;;;17.40;62.60;;;;;;5096478;28;20035;-35
2021/03/02 02:52:50;;;;;;;0.80;0.80;;;17.40;62.70;;;;;;5065835;28;20496;-34
2021/03/02 02:55:17;;;;;;;1.02;0.93;;;17.40;62.50;;;;;;5049421;28;20025;-34
2021/03/02 02:57:44;;;;;;;0.57;0.50;;;17.40;62.40;;;;;;5065745;28;20029;-35
2021/03/02 03:00:11;;;;;;;0.77;0.77;;;17.40;62.40;;;;;;5049071;28;20020;-35
2021/03/02 03:02:39;;;;;;;0.88;0.82;;;17.40;62.30;;;;;;5067816;28;20035;-35
2021/03/02 03:05:16;;;;;;;0.95;0.85;;;17.30;62.30;;;;;;5049514;28;20028;-35
2021/03/02 03:08:13;;;;;;;0.73;0.73;;;17.30;62.10;;;;;;5083339;28;20071;-35
2021/03/02 03:10:39;;;;;;;0.73;0.70;;;17.30;62.10;;;;;;4985100;28;20046;-34
2021/03/02 03:13:06;;;;;;;1.08;0.98;;;17.30;62.30;;;;;;5001482;28;20030;-34
2021/03/02 03:15:34;;;;;;;0.80;0.70;;;17.30;62.30;;;;;;4985004;28;20102;-35
2021/03/02 03:18:03;;;;;;;1.48;0.90;;;17.20;62.30;;;;;;4985143;28;20418;-35
2021/03/02 03:20:30;;;;;;;1.10;0.80;;;17.20;62.50;;;;;;4969487;28;20034;-35
2021/03/02 03:22:56;;;;;;;0.80;0.80;;;17.20;62.40;;;;;;4985266;28;20034;-34
2021/03/02 03:25:22;;;;;;;0.73;0.73;;;17.20;62.40;;;;;;4982017;28;20631;-34
2021/03/02 03:27:56;;;;;;;0.70;0.70;;;17.20;62.40;;;;;;5000935;28;20141;-35
2021/03/02 03:30:24;;;;;;;1.00;0.77;;;17.20;62.30;;;;;;4985357;28;20041;-35
2021/03/02 03:33:00;;;;;;;1.10;0.95;;;17.20;62.20;;;;;;4984891;28;20030;-35
2021/03/02 03:35:26;;;;;;;0.90;0.90;;;17.20;62.20;;;;;;4995745;28;20032;-34
2021/03/02 03:37:52;;;;;;;1.30;0.90;;;17.10;62.30;;;;;;4977806;28;20030;-34
2021/03/02 03:40:19;;;;;;;0.70;0.63;;;17.10;62.30;;;;;;5000715;28;20050;-35
2021/03/02 03:42:45;;;;;;;0.70;0.70;;;17.10;62.30;;;;;;5001059;28;20221;-35
2021/03/02 03:45:11;;;;;;;1.58;1.00;;;17.10;62.30;;;;;;5000454;28;20133;-34
2021/03/02 03:47:39;;;;;;;0.77;0.75;;;17.10;62.40;;;;;;5047163;28;20040;-34
2021/03/02 03:50:05;;;;;;;;;;;17.10;62.10;;;;;;5063299;28;20037;-34
2021/03/02 03:52:32;;;;;;;1.13;0.98;;;17.00;62.20;;;;;;5044931;28;19904;-35
2021/03/02 03:54:58;;;;;;;0.77;0.77;;;17.00;62.10;;;;;;5044977;28;20024;-35
2021/03/02 03:57:27;;;;;;;1.20;0.80;;;17.00;62.00;;;;;;5028603;28;20025;-35
2021/03/02 03:59:53;;;;;;;0.80;0.60;;;17.00;61.90;;;;;;5044614;28;20705;-35
2021/03/02 04:02:20;;;;;;;0.80;0.80;;;17.00;61.90;;;;;;5053534;28;20100;-34
2021/03/02 04:04:47;;;;;;;0.75;0.75;;;17.00;62.00;;;;;;5048109;28;20076;-35
2021/03/02 04:07:13;;;;;;;1.45;0.85;;;17.00;62.00;;;;;;5064572;28;20134;-35
2021/03/02 04:09:40;;;;;;;0.90;0.90;;;17.00;62.00;;;;;;5047790;28;20483;-35
2021/03/02 04:12:09;;;;;;;0.82;0.80;;;17.00;62.00;;;;;;5048147;28;20290;-35
2021/03/02 04:14:35;;;;;;;1.02;0.82;;;16.90;62.00;;;;;;5065054;28;20127;-34
2021/03/02 04:17:02;;;;;;;0.80;0.80;;;16.90;62.20;;;;;;5064441;28;20032;-35
2021/03/02 04:19:28;;;;;;;0.70;0.70;;;16.90;62.10;;;;;;5082585;28;20032;-35
2021/03/02 04:21:54;;;;;;;0.95;0.70;;;16.90;62.10;;;;;;5082644;28;20037;-35
2021/03/02 04:24:21;;;;;;;1.75;0.80;;;16.90;62.00;;;;;;5082570;28;20028;-35
2021/03/02 04:26:47;;;;;;;1.27;0.90;;;16.90;61.90;;;;;;5081504;28;20525;-34
2021/03/02 04:29:13;;;;;;;0.75;0.75;;;16.90;62.10;;;;;;5088246;28;20031;-34
2021/03/02 04:31:39;;;;;;;0.80;0.65;;;16.90;62.00;;;;;;5098604;28;20710;-34
2021/03/02 04:34:05;;;;;;;0.88;0.88;;;16.90;62.30;;;;;;5087260;28;20020;-34
2021/03/02 04:36:32;;;;;;;0.95;0.80;;;16.80;61.80;;;;;;5074325;28;20028;-35
2021/03/02 04:38:58;;;;;;;1.23;0.82;;;16.90;61.90;;;;;;5100671;28;20071;-35
2021/03/02 04:41:24;;;;;;;1.33;0.82;;;16.90;61.60;;;;;;5101813;28;20047;-35
2021/03/02 04:43:50;;;;;;;0.88;0.75;;;16.90;61.50;;;;;;5099890;28;20035;-35
2021/03/02 04:46:19;;;;;;;2.33;0.63;;;17.00;61.50;;;;;;5083143;28;20028;-34
2021/03/02 04:48:46;;;;;;;0.80;0.73;;;17.00;61.40;;;;;;5084938;28;20265;-34
2021/03/02 04:51:12;;;;;;;0.80;0.80;;;17.00;61.30;;;;;;5087834;28;20037;-34
2021/03/02 04:53:38;;;;;;;1.17;0.93;;;17.00;61.10;;;;;;5066593;28;20035;-34
2021/03/02 04:56:05;;;;;;;2.22;0.65;;;17.00;60.90;;;;;;5093231;28;20046;-35
2021/03/02 04:58:31;;;;;;;3.03;0.90;;;17.00;60.80;;;;;;5092290;28;20028;-35
2021/03/02 05:00:57;;;;;;;0.80;0.80;;;17.00;60.80;;;;;;5093976;28;20062;-34
2021/03/02 05:03:23;;;;;;;1.55;0.60;;;17.00;60.70;;;;;;5093960;28;20093;-35
2021/03/02 05:05:50;;;;;;;2.38;0.70;;;17.00;60.40;;;;;;5088541;28;20028;-35
2021/03/02 05:08:16;;;;;;;2.00;0.60;;;17.00;60.50;;;;;;5091430;28;20512;-35
2021/03/02 05:10:42;;;;;;;0.85;0.77;;;17.10;60.50;;;;;;5072073;28;20037;-34
2021/03/02 05:13:08;;;;;;;0.73;0.63;;;17.10;60.40;;;;;;5095561;28;20024;-35
2021/03/02 05:15:34;;;;;;;2.25;0.68;;;17.10;60.40;;;;;;5088916;28;20060;-34
2021/03/02 05:18:00;;;;;;;1.67;0.63;;;17.10;60.50;;;;;;5092402;28;20059;-34
2021/03/02 05:20:27;;;;;;;0.88;0.60;;;17.10;60.30;;;;;;5071664;28;20806;-34
2021/03/02 05:22:53;;;;;;;2.28;0.60;;;17.10;60.30;;;;;;5088066;28;20062;-34
2021/03/02 05:25:19;;;;;;;1.77;0.70;;;17.10;60.30;;;;;;5096046;28;20378;-35
2021/03/02 05:27:45;;;;;;;0.70;0.70;;;17.10;60.30;;;;;;5092917;28;20060;-34
2021/03/02 05:30:13;;;;;;;0.75;0.63;;;17.10;60.30;;;;;;5090359;28;20055;-34
2021/03/02 05:32:38;;;;;;;;;;;17.10;60.40;;;;;;5090259;28;20102;-34
2021/03/02 05:35:05;;;;;;;0.60;0.47;;;17.10;60.30;;;;;;5084926;28;19926;-34
2021/03/02 05:37:31;;;;;;;1.17;0.60;;;17.10;60.40;;;;;;5087524;28;20028;-35
2021/03/02 05:39:58;;;;;;;1.30;0.70;;;17.10;60.50;;;;;;5095400;28;20020;-34
2021/03/02 05:42:25;;;;;;;1.23;0.75;;;17.10;60.60;;;;;;5092147;28;20032;-34
2021/03/02 05:44:51;;;;;;;0.80;0.60;;;17.10;60.50;;;;;;5072536;28;20033;-35
2021/03/02 05:47:17;;;;;;;1.08;0.60;;;17.10;60.50;;;;;;5078452;28;20080;-35
2021/03/02 05:49:43;;;;;;;0.82;0.50;;;17.10;60.50;;;;;;5054580;28;20035;-34
2021/03/02 05:52:12;;;;;;;0.50;0.50;;;17.20;60.50;;;;;;5070820;28;20063;-35
2021/03/02 05:54:39;;;;;;;0.70;0.55;;;17.10;61.10;;;;;;5054564;28;20020;-34
2021/03/02 05:57:05;;;;;;;1.25;0.70;;;17.20;60.50;;;;;;5070940;28;20024;-35
2021/03/02 05:59:31;;;;;;;0.45;0.43;;;17.20;60.40;;;;;;5091129;28;20032;-35
2021/03/02 06:01:58;;;;;;;0.88;0.68;;;17.20;60.40;;;;;;5090330;28;20031;-35
2021/03/02 06:04:25;;;;;;;0.60;0.55;;;17.20;60.30;;;;;;5086110;28;20020;-35
2021/03/02 06:07:00;;;;;;;0.80;0.70;;;17.20;60.30;;;;;;5082598;28;20056;-35
2021/03/02 06:09:27;;;;;;;1.25;0.60;;;17.20;60.30;;;;;;5068455;28;20028;-34
2021/03/02 06:12:04;;;;;;;1.92;0.50;;;17.20;60.30;;;;;;5089787;28;20044;-36
2021/03/02 06:14:32;;;;;;;1.42;0.60;;;17.20;60.20;;;;;;5087581;28;20025;-35
2021/03/02 06:16:58;;;;;;;0.60;0.60;;;17.20;60.30;;;;;;5089590;28;20056;-35
2021/03/02 06:19:46;;;;;;;0.60;0.50;;;17.20;60.20;;;;;;5084825;28;20031;-34
2021/03/02 06:22:35;;;;;;;0.40;0.40;;;17.20;60.20;;;;;;5076316;28;20028;-34
2021/03/02 06:25:02;;;;;;;;;;;17.20;60.20;;;;;;5076461;28;20032;-35
2021/03/02 06:27:28;;;;;;;1.42;0.68;;;17.20;60.10;;;;;;5087964;28;19918;-34
2021/03/02 06:30:14;;;;;;;1.10;0.70;;;17.20;60.30;;;;;;5052653;28;20523;-34
2021/03/02 06:32:45;;;;;;;0.70;0.60;;;17.20;60.30;;;;;;5096115;28;20044;-35
2021/03/02 06:35:12;;;;;;;0.65;0.60;;;17.20;60.40;;;;;;5089462;28;20035;-35
2021/03/02 06:37:45;;;;;;;0.70;0.50;;;17.20;60.30;;;;;;5087946;28;20047;-34
2021/03/02 06:40:13;;;;;;;0.68;0.50;;;17.20;60.30;;;;;;5087787;28;20040;-35
2021/03/02 06:42:42;;;;;;;0.70;0.52;;;17.20;60.30;;;;;;5083733;28;20028;-35
2021/03/02 06:45:10;;;;;;;2.47;0.70;;;17.20;60.20;;;;;;5053770;28;20025;-35
2021/03/02 06:47:43;;;;;;;1.27;0.80;;;17.30;60.30;;;;;;5075188;28;21198;-35
2021/03/02 06:50:12;;;;;;;1.73;0.80;;;17.30;60.10;;;;;;5093537;28;20020;-34
2021/03/02 06:52:42;;;;;;;0.88;0.70;;;17.30;60.10;;;;;;5081816;28;20032;-35
2021/03/02 06:55:22;;;;;;;1.05;0.68;;;17.30;60.10;;;;;;5086646;28;20042;-35
2021/03/02 06:57:49;;;;;;;2.20;0.75;;;17.30;60.00;;;;;;5094954;28;20028;-35
2021/03/02 07:00:16;;;;;;;0.93;0.80;;;17.20;60.00;;;;;;5094471;28;20038;-34
2021/03/02 07:02:43;;;;;;;2.65;0.80;;;17.30;60.10;;;;;;5094125;28;20085;-34
2021/03/02 07:05:15;;;;;;;1.20;0.70;;;17.30;60.10;;;;;;5093957;28;20020;-35
2021/03/02 07:07:44;;;;;;;1.50;0.65;;;17.30;60.00;;;;;;5087821;28;20089;-35
2021/03/02 07:10:12;;;;;;;1.02;0.70;;;17.30;59.90;;;;;;5075866;28;20058;-35
2021/03/02 07:12:40;;;;;;;1.00;0.70;;;17.30;59.90;;;;;;5094285;28;20062;-34
2021/03/02 07:15:17;;;;;;;1.75;0.73;;;17.30;60.00;;;;;;5071298;28;20036;-35
2021/03/02 07:17:48;;;;;;;1.58;0.93;;;17.30;59.90;;;;;;5087421;28;20899;-35
2021/03/02 07:20:18;;;;;;;1.10;0.80;;;17.30;60.00;;;;;;5091585;28;20093;-35
2021/03/02 07:22:50;;;;;;;0.70;0.50;;;17.30;60.00;;;;;;5087495;28;20119;-35
2021/03/02 07:25:23;;;;;;;0.70;0.50;;;17.30;59.90;;;;;;5094216;28;20055;-34
2021/03/02 07:27:53;;;;;;;1.42;0.70;;;17.30;59.90;;;;;;5088680;28;20101;-34
2021/03/02 07:30:19;;;;;;;1.25;0.60;;;17.30;59.90;;;;;;5072126;28;20025;-35
2021/03/02 07:32:46;;;;;;;0.70;0.60;;;17.30;59.80;;;;;;5070994;28;20059;-35
2021/03/02 07:35:16;;;;;;;0.70;0.60;;;17.30;59.80;;;;;;5088035;28;20033;-35
2021/03/02 07:37:42;;;;;;;0.80;0.70;;;17.30;59.80;;;;;;5067884;28;20131;-35
2021/03/02 07:40:10;;;;;;;1.10;0.70;;;17.30;59.80;;;;;;5054665;28;20035;-35
2021/03/02 07:42:37;;;;;;;0.57;0.50;;;17.40;59.80;;;;;;5071335;28;20032;-34
2021/03/02 07:45:16;;;;;;;1.25;0.80;;;17.30;59.70;;;;;;5078400;28;20054;-34
2021/03/02 07:47:50;;;;;;;0.82;0.63;;;17.40;59.70;;;;;;5088627;28;20041;-35
2021/03/02 07:50:23;;;;;;;2.00;0.57;;;17.30;59.60;;;;;;5096524;28;20485;-34
2021/03/02 07:53:10;;;;;;;1.08;0.60;;;17.30;59.60;;;;;;5087488;28;20056;-34
2021/03/02 07:55:36;;;;;;;0.65;0.60;;;17.40;59.70;;;;;;5073045;28;20037;-35
2021/03/02 07:58:19;;;;;;;0.70;0.45;;;17.30;59.60;;;;;;5075507;28;20052;-34
2021/03/02 08:00:46;;;;;;;1.58;0.52;;;17.40;59.60;;;;;;5093788;28;20561;-34
2021/03/02 08:03:20;;;;;;;1.35;0.60;;;17.30;59.60;;;;;;5067840;28;20028;-35
2021/03/02 08:05:50;;;;;;;0.77;0.50;;;17.30;59.50;;;;;;5084656;28;20036;-35
2021/03/02 08:08:27;;;;;;;0.93;0.60;;;17.40;59.60;;;;;;5096931;28;20076;-35
2021/03/02 08:10:54;;;;;;;0.70;0.52;;;17.30;59.50;;;;;;5088692;28;20583;-35
2021/03/02 08:13:35;;;;;;;;;;;17.40;59.60;;;;;;5087703;28;20100;-34
2021/03/02 08:16:03;;;;;;;0.60;0.50;;;17.30;59.60;;;;;;5086659;28;19904;-34
2021/03/02 08:18:39;;;;;;;0.63;0.50;;;17.30;59.60;;;;;;5090345;28;21147;-34
2021/03/02 08:21:12;;;;;;;0.70;0.50;;;17.40;59.50;;;;;;5069128;28;20036;-34
2021/03/02 08:23:44;;;;;;;1.33;0.70;;;17.40;59.50;;;;;;5086955;28;20023;-34
2021/03/02 08:26:24;;;;;;;0.70;0.50;;;17.30;60.00;;;;;;5088299;28;20020;-35
2021/03/02 08:29:15;;;;;;;1.17;0.65;;;17.30;59.40;;;;;;5072089;28;20028;-35
2021/03/02 08:31:49;;;;;;;0.75;0.50;;;17.30;59.30;;;;;;5078907;28;20048;-34
2021/03/02 08:34:20;;;;;;;0.77;0.77;;;17.40;59.40;;;;;;5094578;28;20101;-35
2021/03/02 08:36:51;;;;;;;0.82;0.57;;;17.40;59.40;;;;;;5094298;28;20035;-35
2021/03/02 08:39:18;;;;;;;0.75;0.60;;;17.40;59.30;;;;;;5089471;28;20028;-35
2021/03/02 08:41:46;;;;;;;2.25;0.52;;;17.30;59.30;;;;;;5096529;28;20016;-34
2021/03/02 08:44:22;;;;;;;1.02;0.50;;;17.40;59.30;;;;;;5092764;28;20036;-34
2021/03/02 08:46:52;;;;;;;0.90;0.50;;;17.30;59.20;;;;;;5091453;28;20025;-35
2021/03/02 08:49:18;;;;;;;1.25;0.55;;;17.40;59.30;;;;;;5091646;28;20028;-34
2021/03/02 08:51:45;;;;;;;0.65;0.50;;;17.30;59.20;;;;;;5095700;28;20056;-34
2021/03/02 08:54:11;;;;;;;1.75;0.65;;;17.30;59.20;;;;;;5093153;28;20031;-34
2021/03/02 08:56:37;;;;;;;0.57;0.32;;;17.40;59.10;;;;;;5093332;28;20024;-35
2021/03/02 08:59:06;;;;;;;0.60;0.40;;;17.40;59.10;;;;;;5097008;28;20080;-34
2021/03/02 09:01:42;;;;;;;0.40;0.40;;;17.40;59.20;;;;;;5087632;28;20061;-34
2021/03/02 09:04:18;;;;;;;0.50;0.40;;;17.40;59.20;;;;;;5092020;28;20044;-34
2021/03/02 09:06:46;;;;;;;0.95;0.55;;;17.40;59.20;;;;;;5091864;28;20052;-35
2021/03/02 09:09:19;;;;;;;0.52;0.38;;;17.40;59.10;;;;;;5092717;28;20032;-34
2021/03/02 09:11:47;;;;;;;0.32;0.32;;;17.40;59.10;;;;;;5071822;28;20036;-35
2021/03/02 09:14:17;;;;;;;0.30;0.30;;;17.40;59.10;;;;;;5091875;28;20303;-34
2021/03/02 09:16:50;;;;;;;0.50;0.40;;;17.40;59.70;;;;;;5098060;28;20774;-34
2021/03/02 09:19:28;;;;;;;0.60;0.47;;;17.40;59.10;;;;;;5053931;28;20145;-35
2021/03/02 09:22:05;;;;;;;0.73;0.47;;;17.40;59.00;;;;;;5088898;28;20024;-35
2021/03/02 09:24:39;;;;;;;0.40;0.40;;;17.40;59.00;;;;;;5075983;28;20087;-34
2021/03/02 09:27:07;;;;;;;0.45;0.40;;;17.40;59.00;;;;;;5071536;28;20032;-34
2021/03/02 09:29:35;;;;;;;0.70;0.30;;;17.40;58.90;;;;;;5072159;28;20040;-35
2021/03/02 09:32:03;;;;;;;0.30;0.30;;;17.40;59.00;;;;;;5090820;28;20040;-35
2021/03/02 09:34:36;;;;;;;0.45;0.40;;;17.40;58.90;;;;;;5094396;28;20025;-35
2021/03/02 09:37:10;;;;;;;0.40;0.40;;;17.40;58.90;;;;;;5071930;28;20148;-34
2021/03/02 09:39:37;;;;;;;0.47;0.40;;;17.40;58.90;;;;;;5085817;28;20035;-34
2021/03/02 09:42:15;;;;;;;0.93;0.57;;;17.40;58.90;;;;;;5091674;28;20022;-35
2021/03/02 09:44:46;;;;;;;0.80;0.40;;;17.40;58.90;;;;;;5092480;28;20096;-35
2021/03/02 09:47:16;;;;;;;0.47;0.40;;;17.40;58.90;;;;;;5089952;28;20105;-34
2021/03/02 09:49:44;;;;;;;0.60;0.40;;;17.40;58.80;;;;;;5090196;28;20028;-34
2021/03/02 09:52:20;;;;;;;0.40;0.30;;;17.40;58.80;;;;;;5096960;28;20567;-35
2021/03/02 09:55:05;;;;;;;0.52;0.52;;;17.40;58.80;;;;;;5092278;28;20555;-34
2021/03/02 09:57:31;;;;;;;1.00;0.40;;;17.40;59.40;;;;;;5075432;28;20062;-35
2021/03/02 09:59:57;;;;;;;0.63;0.40;;;17.40;58.80;;;;;;5091511;28;20070;-34
2021/03/02 10:02:24;;;;;;;0.77;0.40;;;17.40;58.80;;;;;;5101553;28;20030;-34
2021/03/02 10:04:50;;;;;;;1.30;0.40;;;17.40;58.70;;;;;;5071940;28;20032;-35
2021/03/02 10:07:16;;;;;;;0.50;0.50;;;17.40;58.70;;;;;;5090398;28;20040;-35
2021/03/02 10:09:48;;;;;;;1.75;0.40;;;17.40;58.70;;;;;;5089905;28;20047;-34
2021/03/02 10:12:15;;;;;;;1.50;0.50;;;17.40;58.70;;;;;;5097027;28;20115;-34
2021/03/02 10:14:43;;;;;;;0.70;0.40;;;17.40;58.70;;;;;;5072573;28;20027;-35
2021/03/02 10:17:09;;;;;;;0.40;0.40;;;17.40;58.70;;;;;;5089530;28;20691;-35
2021/03/02 10:19:36;;;;;;;0.50;0.40;;;17.40;58.60;;;;;;5075577;28;20032;-35
2021/03/02 10:22:10;;;;;;;0.32;0.32;;;17.40;58.60;;;;;;5094223;28;20040;-34
2021/03/02 10:24:37;;;;;;;0.60;0.40;;;17.40;58.70;;;;;;5094643;28;20040;-35
2021/03/02 10:27:14;;;;;;;0.65;0.45;;;17.40;58.60;;;;;;5090492;28;20050;-35
2021/03/02 10:29:41;;;;;;;0.40;0.30;;;17.40;58.60;;;;;;5091316;28;20123;-34
2021/03/02 10:32:07;;;;;;;0.63;0.52;;;17.40;58.60;;;;;;5091726;28;20289;-35
2021/03/02 10:34:36;;;;;;;0.57;0.40;;;17.40;58.60;;;;;;5092999;28;20036;-34
2021/03/02 10:37:03;;;;;;;0.30;0.30;;;17.30;58.60;;;;;;5093379;28;20028;-34
2021/03/02 10:39:29;;;;;;;0.40;0.28;;;17.40;58.60;;;;;;5090295;28;20056;-35
2021/03/02 10:41:55;;;;;;;0.60;0.43;;;17.40;58.60;;;;;;5084721;28;20033;-35
2021/03/02 10:44:21;;;;;;;0.30;0.30;;;17.40;59.00;;;;;;5091813;28;20051;-34
2021/03/02 10:46:47;;;;;;;0.45;0.30;;;17.40;58.60;;;;;;5090819;28;20037;-35
2021/03/02 10:49:14;;;;;;;0.32;0.30;;;17.40;58.60;;;;;;5091653;28;20028;-36
2021/03/02 10:51:40;;;;;;;0.40;0.40;;;17.40;58.60;;;;;;5089914;28;20043;-34
2021/03/02 10:54:06;;;;;;;0.57;0.40;;;17.40;58.60;;;;;;5092905;28;20031;-34
2021/03/02 10:56:33;;;;;;;0.30;0.30;;;17.40;58.60;;;;;;5090218;28;20063;-35
2021/03/02 10:58:59;;;;;;;0.32;0.30;;;17.40;58.60;;;;;;5092534;28;20027;-35
2021/03/02 11:01:26;;;;;;;0.30;0.30;;;17.40;58.50;;;;;;5094816;28;20036;-35
2021/03/02 11:03:52;;;;;;;0.40;0.35;;;17.40;58.60;;;;;;5087241;28;20024;-35
2021/03/02 11:06:20;;;;;;;0.50;0.40;;;17.40;58.60;;;;;;5089335;28;20057;-35
2021/03/02 11:08:48;;;;;;;0.88;0.43;;;17.40;58.60;;;;;;5092440;28;20076;-34
2021/03/02 11:11:15;;;;;;;0.47;0.40;;;17.40;58.60;;;;;;5088419;28;20660;-35
2021/03/02 11:13:42;;;;;;;0.85;0.43;;;17.30;58.50;;;;;;5085146;28;20054;-35
2021/03/02 11:16:09;;;;;;;0.45;0.40;;;17.40;58.60;;;;;;5091231;28;20032;-35
2021/03/02 11:18:35;;;;;;;0.55;0.50;;;17.30;58.50;;;;;;5092649;28;20024;-34
2021/03/02 11:21:01;;;;;;;0.40;0.40;;;17.40;58.60;;;;;;5089353;28;20029;-35
2021/03/02 11:23:27;;;;;;;0.38;0.38;;;17.40;58.60;;;;;;5088207;28;20618;-34
2021/03/02 11:25:53;;;;;;;0.40;0.40;;;17.30;58.50;;;;;;5094797;28;20107;-34
2021/03/02 11:28:19;;;;;;;0.50;0.30;;;17.40;58.60;;;;;;5090454;28;20401;-35
2021/03/02 11:30:46;;;;;;;0.73;0.40;;;17.40;58.60;;;;;;5087276;28;20092;-34
2021/03/02 11:33:13;;;;;;;0.60;0.50;;;17.30;58.50;;;;;;5088963;28;20490;-34
2021/03/02 11:35:42;;;;;;;0.32;0.30;;;17.40;58.50;;;;;;5088898;28;20587;-34
2021/03/02 11:38:08;;;;;;;0.25;0.25;;;17.30;58.50;;;;;;5096714;28;20050;-34
2021/03/02 11:40:35;;;;;;;1.23;0.40;;;17.30;58.50;;;;;;5095022;28;20031;-34
2021/03/02 11:43:02;;;;;;;0.50;0.40;;;17.30;58.50;;;;;;5088962;28;20039;-34
2021/03/02 11:45:29;;;;;;;0.50;0.40;;;17.30;58.50;;;;;;5089482;28;20043;-34
2021/03/02 11:47:55;;;;;;;0.30;0.25;;;17.40;58.50;;;;;;5086492;28;20031;-34
2021/03/02 11:50:22;;;;;;;0.47;0.40;;;17.30;58.40;;;;;;5090446;28;20129;-35
2021/03/02 11:52:49;;;;;;;0.63;0.30;;;17.40;58.50;;;;;;5088320;28;20024;-34
2021/03/02 11:55:18;;;;;;;0.30;0.30;;;17.30;58.40;;;;;;5091321;28;21056;-33
2021/03/02 11:57:45;;;;;;;0.30;0.30;;;17.30;58.40;;;;;;5089528;28;20102;-34
2021/03/02 12:00:19;;;;;;;0.60;0.40;;;17.40;58.90;;;;;;5091311;28;20048;-34
2021/03/02 12:02:45;;;;;;;0.63;0.60;;;17.30;58.40;;;;;;5090520;28;20089;-34
2021/03/02 12:05:12;;;;;;;0.50;0.33;;;17.40;58.40;;;;;;5097794;28;20024;-34
2021/03/02 12:07:38;;;;;;;0.47;0.20;;;17.30;58.40;;;;;;5092968;28;20048;-34
2021/03/02 12:10:06;;;;;;;0.35;0.30;;;17.40;58.40;;;;;;5093060;28;20545;-34
2021/03/02 12:12:32;;;;;;;0.55;0.25;;;17.30;58.40;;;;;;5089898;28;20093;-34
2021/03/02 12:14:58;;;;;;;0.60;0.30;;;17.40;58.40;;;;;;5089479;28;20029;-34
2021/03/02 12:17:24;;;;;;;0.50;0.30;;;17.30;58.90;;;;;;5092172;28;20568;-34
2021/03/02 12:19:50;;;;;;;0.68;0.30;;;17.40;58.50;;;;;;5090791;28;20066;-35
2021/03/02 12:22:17;;;;;;;0.40;0.40;;;17.30;58.40;;;;;;5093482;28;20024;-34
2021/03/02 12:24:43;;;;;;;1.08;0.47;;;17.30;58.40;;;;;;5090412;28;20035;-34
2021/03/02 12:27:09;;;;;;;0.68;0.32;;;17.30;58.50;;;;;;5085113;28;20032;-35
2021/03/02 12:29:35;;;;;;;0.55;0.40;;;17.40;58.50;;;;;;5089564;28;20051;-34
2021/03/02 12:32:01;;;;;;;0.40;0.30;;;17.40;58.50;;;;;;5073175;28;20054;-34
2021/03/02 12:34:27;;;;;;;0.77;0.30;;;17.40;58.50;;;;;;5082509;28;20039;-34
2021/03/02 12:36:55;;;;;;;1.27;0.40;;;17.30;58.50;;;;;;5084728;28;20032;-34
2021/03/02 12:39:22;;;;;;;0.38;0.35;;;17.40;58.50;;;;;;5085754;28;20047;-33
2021/03/02 12:41:48;;;;;;;0.47;0.38;;;17.40;58.50;;;;;;5088860;28;20028;-34
2021/03/02 12:44:14;;;;;;;0.32;0.32;;;17.30;58.40;;;;;;5082113;28;20020;-34
2021/03/02 12:46:41;;;;;;;0.28;0.28;;;17.40;58.40;;;;;;5094361;28;20027;-34
2021/03/02 12:49:07;;;;;;;0.30;0.30;;;17.40;58.40;;;;;;5090685;28;20029;-34
2021/03/02 12:51:33;;;;;;;0.75;0.40;;;17.40;58.40;;;;;;5088583;28;20037;-34
2021/03/02 12:53:59;;;;;;;0.60;0.30;;;17.40;58.40;;;;;;5086771;28;20027;-34
2021/03/02 12:56:27;;;;;;;0.38;0.30;;;17.30;58.40;;;;;;5086011;28;20032;-34